Time;durP1;ratioP1;P1;durP2;ratioP2;P2;SDS_P1;SDS_P2;PMS_P1;PMS_P2;Temp;Humidity;BMP_temperature;BMP_pressure;BME280_temperature;BME280_humidity;BME280_pressure;Samples;Min_cycle;Max_cycle;Signal;HPM_P1;HPM_P2
2022/09/01 00:01:34;;;;;;;15.77;14.30;;;;;;;16.57;100.00;100439.44;4972228;28;20193;-76
2022/09/01 00:04:02;;;;;;;14.20;13.00;;;;;;;16.58;100.00;100442.88;4966600;28;20274;-75
2022/09/01 00:06:29;;;;;;;15.17;13.80;;;;;;;16.56;100.00;100439.50;4973003;28;20727;-78
2022/09/01 00:08:56;;;;;;;14.80;13.67;;;;;;;16.56;100.00;100439.50;4979509;28;20189;-76
2022/09/01 00:11:24;;;;;;;14.03;12.83;;;;;;;16.57;100.00;100446.41;4971170;28;20275;-76
2022/09/01 00:13:51;;;;;;;15.17;13.87;;;;;;;16.56;100.00;100450.78;4967168;28;20667;-76
2022/09/01 00:16:18;;;;;;;13.63;12.50;;;;;;;16.56;100.00;100442.09;4966712;28;20237;-78
2022/09/01 00:18:48;;;;;;;14.43;13.33;;;;;;;16.56;100.00;100436.88;4966838;28;20184;-76
2022/09/01 00:21:15;;;;;;;13.70;12.50;;;;;;;16.52;100.00;100435.25;4967760;28;20189;-75
2022/09/01 00:23:40;;;;;;;12.97;11.97;;;;;;;16.43;100.00;100445.06;4969887;28;20195;-77
2022/09/01 00:26:06;;;;;;;13.70;12.57;;;;;;;16.36;100.00;100442.69;4971445;28;20210;-78
2022/09/01 00:28:33;;;;;;;13.47;12.23;;;;;;;16.28;100.00;100440.31;4968035;28;20267;-78
2022/09/01 00:30:58;;;;;;;12.73;11.60;;;;;;;16.21;100.00;100444.88;4975093;28;20559;-78
2022/09/01 00:33:23;;;;;;;12.43;11.33;;;;;;;16.13;100.00;100442.50;4973315;28;20209;-76
2022/09/01 00:35:49;;;;;;;12.33;11.30;;;;;;;16.07;100.00;100441.81;4966322;28;20249;-75
2022/09/01 00:38:14;;;;;;;12.83;11.77;;;;;;;16.02;100.00;100441.13;4971720;28;20195;-76
2022/09/01 00:40:40;;;;;;;12.13;11.20;;;;;;;15.96;100.00;100439.50;4969106;28;20268;-77
2022/09/01 00:43:14;;;;;;;12.73;11.67;;;;;;;15.92;100.00;100435.31;4966982;28;20193;-77
2022/09/01 00:45:40;;;;;;;12.40;11.13;;;;;;;15.89;100.00;100436.22;4966897;28;20787;-77
2022/09/01 00:48:06;;;;;;;13.20;12.13;;;;;;;15.85;100.00;100437.25;4967251;28;20491;-77
2022/09/01 00:50:31;;;;;;;12.80;11.77;;;;;;;15.84;100.00;100436.34;4964256;28;20222;-77
2022/09/01 00:52:57;;;;;;;12.27;11.17;;;;;;;15.83;100.00;100436.41;4963686;28;20240;-76
2022/09/01 00:55:30;;;;;;;12.50;11.40;;;;;;;15.80;100.00;100436.47;4967337;28;20225;-76
2022/09/01 00:57:59;;;;;;;12.17;10.87;;;;;;;15.77;100.00;100436.56;4966809;28;20309;-77
2022/09/01 01:00:28;;;;;;;12.00;10.90;;;;;;;15.76;100.00;100432.22;4968362;28;20193;-76
2022/09/01 01:02:54;;;;;;;11.57;10.63;;;;;;;15.73;100.00;100435.78;4971147;28;20196;-77
2022/09/01 01:05:22;;;;;;;11.47;10.67;;;;;;;15.71;100.00;100429.75;4967427;28;20210;-76
2022/09/01 01:07:49;;;;;;;11.97;10.87;;;;;;;15.69;100.00;100427.19;4967815;28;20732;-77
2022/09/01 01:10:19;;;;;;;12.63;11.47;;;;;;;15.65;100.00;100420.34;4980289;28;20242;-76
2022/09/01 01:12:45;;;;;;;11.07;9.97;;;;;;;15.64;100.00;100420.41;4986031;28;20503;-76
2022/09/01 01:15:13;;;;;;;11.50;10.67;;;;;;;15.60;100.00;100422.22;4964760;28;20216;-78
2022/09/01 01:17:39;;;;;;;10.83;10.03;;;;;;;15.57;100.00;100418.84;4962903;28;20217;-77
2022/09/01 01:23:07;;;;;;;11.67;10.67;;;;;;;15.54;100.00;100422.41;4965143;28;20279;-76
2022/09/01 01:25:43;;;;;;;11.30;10.30;;;;;;;15.55;100.00;100422.34;4967605;28;20213;-77
2022/09/01 01:28:20;;;;;;;11.47;10.47;;;;;;;15.58;100.00;100420.56;4962113;28;20192;-78
2022/09/01 01:30:52;;;;;;;11.70;10.87;;;;;;;15.57;100.00;100426.69;4973374;28;20247;-76
2022/09/01 01:33:23;;;;;;;13.00;11.30;;;;;;;15.53;100.00;100421.53;4966786;28;20197;-77
2022/09/01 01:35:50;;;;;;;11.67;10.87;;;;;;;15.53;100.00;100421.53;4965866;28;20273;-77
2022/09/01 01:38:21;;;;;;;11.20;10.40;;;;;;;15.54;100.00;100427.63;4962263;28;20193;-76
2022/09/01 01:40:47;;;;;;;11.17;10.17;;;;;;;15.52;100.00;100426.81;4968529;28;20194;-76
2022/09/01 01:43:20;;;;;;;12.70;11.60;;;;;;;15.51;100.00;100423.31;4966531;28;20189;-78
2022/09/01 01:45:53;;;;;;;11.27;10.33;;;;;;;15.48;100.00;100415.63;4965591;28;20215;-77
2022/09/01 01:48:22;;;;;;;13.00;11.90;;;;;;;15.45;100.00;100415.69;4964036;28;20719;-78
2022/09/01 01:50:49;;;;;;;12.27;11.27;;;;;;;15.43;100.00;100417.47;4967561;28;20256;-77
2022/09/01 01:53:18;;;;;;;12.20;11.27;;;;;;;15.44;100.00;100426.16;4967342;28;20192;-76
2022/09/01 01:55:47;;;;;;;12.03;10.87;;;;;;;15.43;100.00;100421.84;4966470;28;20292;-77
2022/09/01 01:58:14;;;;;;;12.30;11.30;;;;;;;15.43;100.00;100427.06;4957686;28;20196;-76
2022/09/01 02:00:41;;;;;;;12.40;11.50;;;;;;;15.43;100.00;100424.47;4966668;28;20190;-78
2022/09/01 02:03:07;;;;;;;12.30;11.20;;;;;;;15.41;100.00;100418.44;4968922;28;20797;-77
2022/09/01 02:05:34;;;;;;;11.17;10.37;;;;;;;15.41;100.00;100432.31;4966800;28;20560;-76
2022/09/01 02:08:07;;;;;;;11.60;10.40;;;;;;;15.38;100.00;100429.78;4968475;28;20605;-76
2022/09/01 02:10:37;;;;;;;12.07;11.07;;;;;;;15.38;100.00;100421.94;4967904;28;20193;-77
2022/09/01 02:13:06;;;;;;;12.30;11.33;;;;;;;15.34;100.00;100431.63;4969900;28;20195;-77
2022/09/01 02:15:37;;;;;;;12.93;11.70;;;;;;;15.34;100.00;100428.16;4966067;28;20642;-77
2022/09/01 02:18:04;;;;;;;13.00;12.00;;;;;;;15.37;100.00;100423.72;4964353;28;20543;-76
2022/09/01 02:20:31;;;;;;;12.77;11.50;;;;;;;15.32;100.00;100416.91;4972730;28;20224;-75
2022/09/01 02:23:09;;;;;;;12.23;11.30;;;;;;;15.29;100.00;100417.84;4971073;28;20295;-76
2022/09/01 02:25:36;;;;;;;11.80;10.90;;;;;;;15.28;100.00;100417.88;4980432;28;20212;-76
2022/09/01 02:28:02;;;;;;;12.43;11.20;;;;;;;15.24;100.00;100412.75;4968590;28;20189;-76
2022/09/01 02:30:31;;;;;;;13.37;12.27;;;;;;;15.23;100.00;100423.22;4975323;28;20192;-77
2022/09/01 02:32:58;;;;;;;12.40;11.40;;;;;;;15.19;100.00;100409.44;4966170;28;20610;-75
2022/09/01 02:35:27;;;;;;;12.03;10.93;;;;;;;15.16;100.00;100416.44;4967912;28;20219;-75
2022/09/01 02:37:55;;;;;;;12.37;11.37;;;;;;;15.14;100.00;100416.50;4970985;28;20281;-77
2022/09/01 02:40:20;;;;;;;12.87;11.90;;;;;;;15.16;100.00;100419.06;4970125;28;20211;-75
2022/09/01 02:42:46;;;;;;;11.67;10.77;;;;;;;15.11;100.00;100405.31;4972103;28;20197;-75
2022/09/01 02:45:14;;;;;;;12.63;11.53;;;;;;;15.09;100.00;100414.03;4987840;28;20240;-77
2022/09/01 02:47:40;;;;;;;12.47;11.47;;;;;;;15.07;100.00;100412.31;4971629;28;20197;-75
2022/09/01 02:50:12;;;;;;;13.30;12.17;;;;;;;15.04;100.00;100410.66;4965661;28;20768;-78
2022/09/01 02:52:39;;;;;;;14.17;13.07;;;;;;;15.06;100.00;100413.22;4976051;28;20736;-77
2022/09/01 02:55:06;;;;;;;13.07;12.07;;;;;;;15.04;100.00;100412.44;4968515;28;20186;-76
2022/09/01 02:57:33;;;;;;;14.03;12.87;;;;;;;14.99;100.00;100399.50;4968929;28;20224;-77
2022/09/01 02:59:59;;;;;;;14.13;12.80;;;;;;;14.99;100.00;100412.53;4972545;28;20231;-77
2022/09/01 03:02:27;;;;;;;14.73;13.33;;;;;;;14.96;100.00;100401.31;4978056;28;20188;-76
2022/09/01 03:04:54;;;;;;;15.13;14.03;;;;;;;14.91;100.00;100410.09;4960648;28;20191;-75
2022/09/01 03:07:24;;;;;;;14.30;13.10;;;;;;;14.88;100.00;100401.53;4973975;28;20222;-77
2022/09/01 03:09:51;;;;;;;15.60;14.30;;;;;;;14.89;100.00;100408.44;4968588;28;20189;-75
2022/09/01 03:12:17;;;;;;;15.40;13.97;;;;;;;14.86;100.00;100398.09;4976758;28;20701;-76
2022/09/01 03:14:42;;;;;;;14.63;13.30;;;;;;;14.84;100.00;100405.97;4966348;28;20229;-76
2022/09/01 03:17:07;;;;;;;15.90;14.37;;;;;;;14.83;100.00;100406.84;4967620;28;20250;-75
2022/09/01 03:19:39;;;;;;;16.13;14.73;;;;;;;14.78;100.00;100408.72;4971513;28;20223;-76
2022/09/01 03:22:04;;;;;;;16.37;15.07;;;;;;;14.75;100.00;100403.56;4967912;28;20188;-76
2022/09/01 03:24:31;;;;;;;16.70;15.30;;;;;;;14.73;100.00;100405.38;4972305;28;20189;-75
2022/09/01 03:26:56;;;;;;;16.77;15.47;;;;;;;14.68;100.00;100408.06;4980278;28;20574;-77
2022/09/01 03:29:21;;;;;;;16.00;14.70;;;;;;;14.63;100.00;100408.16;4981401;28;20194;-76
2022/09/01 03:31:47;;;;;;;17.23;15.73;;;;;;;14.62;100.00;100414.25;4978095;28;20182;-76
2022/09/01 03:34:15;;;;;;;18.50;17.00;;;;;;;14.60;100.00;100417.78;4975062;28;20203;-75
2022/09/01 03:36:48;;;;;;;17.37;16.07;;;;;;;14.58;100.00;100423.06;4972268;28;20213;-76
2022/09/01 03:39:14;;;;;;;18.00;16.50;;;;;;;14.57;100.00;100428.28;4968510;28;20672;-76
2022/09/01 03:41:40;;;;;;;18.80;17.27;;;;;;;14.60;100.00;100428.22;4973640;28;20196;-76
2022/09/01 03:44:06;;;;;;;18.93;17.43;;;;;;;14.57;100.00;100420.47;4971109;28;20203;-76
2022/09/01 03:46:31;;;;;;;18.20;16.63;;;;;;;14.58;100.00;100419.56;4972991;28;20201;-76
2022/09/01 03:48:59;;;;;;;18.70;17.23;;;;;;;14.56;100.00;100429.16;4962018;28;20272;-75
2022/09/01 03:51:27;;;;;;;18.63;17.13;;;;;;;14.51;100.00;100423.22;4967629;28;20562;-77
2022/09/01 03:53:53;;;;;;;18.73;17.30;;;;;;;14.47;100.00;100423.28;4967528;28;20189;-76
2022/09/01 03:56:20;;;;;;;17.37;15.87;;;;;;;14.46;100.00;100418.97;4966006;28;20700;-75
2022/09/01 03:58:46;;;;;;;18.53;17.13;;;;;;;14.45;100.00;100421.59;4967788;28;20302;-75
2022/09/01 04:01:12;;;;;;;17.90;16.50;;;;;;;14.44;100.00;100422.53;4972106;28;20620;-76
2022/09/01 04:03:39;;;;;;;17.67;16.20;;;;;;;14.44;100.00;100415.53;4970782;28;20241;-76
2022/09/01 04:06:07;;;;;;;19.90;18.30;;;;;;;14.45;100.00;100413.78;4983669;28;20207;-77
2022/09/01 04:08:33;;;;;;;19.80;18.10;;;;;;;14.43;100.00;100419.03;4972083;28;20583;-76
2022/09/01 04:11:03;;;;;;;21.43;19.53;;;;;;;14.43;100.00;100420.81;4974081;28;20192;-76
2022/09/01 04:13:37;;;;;;;20.33;18.57;;;;;;;14.40;100.00;100411.28;4968035;28;20187;-76
2022/09/01 04:18:03;;;;;;;21.00;19.17;;;;;;;14.41;100.00;100414.78;4958943;28;20212;-75
2022/09/01 04:18:49;;;;;;;21.13;19.43;;;;;;;14.39;100.00;100411.34;4968791;28;20259;-76
2022/09/01 04:21:16;;;;;;;22.10;20.30;;;;;;;14.37;100.00;100408.75;4974845;28;20188;-76
2022/09/01 04:23:42;;;;;;;20.17;18.63;;;;;;;14.35;100.00;100413.16;4967493;28;20192;-76
2022/09/01 04:26:13;;;;;;;22.50;20.50;;;;;;;14.36;100.00;100411.41;4969422;28;20215;-76
2022/09/01 04:28:49;;;;;;;21.57;19.77;;;;;;;14.35;100.00;100415.78;4966757;28;20209;-77
2022/09/01 04:31:20;;;;;;;23.70;21.60;;;;;;;14.35;100.00;100413.16;4974540;28;20203;-75
2022/09/01 04:33:48;;;;;;;24.67;22.73;;;;;;;14.40;100.00;100419.09;4979268;28;20734;-76
2022/09/01 04:36:32;;;;;;;24.80;22.67;;;;;;;14.40;100.00;100415.66;4963218;28;20225;-76
2022/09/01 04:39:00;;;;;;;24.97;22.97;;;;;;;14.39;100.00;100416.53;4972930;28;20202;-76
2022/09/01 04:41:32;;;;;;;26.30;24.00;;;;;;;14.37;100.00;100416.56;4970068;28;20197;-76
2022/09/01 04:44:01;;;;;;;24.80;22.73;;;;;;;14.36;100.00;100411.41;4964611;28;20216;-75
2022/09/01 04:46:30;;;;;;;24.37;22.27;;;;;;;14.35;100.00;100414.91;4970944;28;20229;-75
2022/09/01 04:48:56;;;;;;;22.97;21.17;;;;;;;14.32;100.00;100419.28;4978123;28;20211;-75
2022/09/01 04:51:26;;;;;;;24.37;22.27;;;;;;;14.31;100.00;100414.13;4972905;28;20223;-75
2022/09/01 04:53:53;;;;;;;22.57;20.70;;;;;;;14.31;100.00;100417.56;4977746;28;20596;-77
2022/09/01 04:56:21;;;;;;;22.33;20.37;;;;;;;14.31;100.00;100420.16;4968246;28;20213;-76
2022/09/01 04:58:48;;;;;;;22.00;20.20;;;;;;;14.32;100.00;100421.03;4968525;28;20200;-76
2022/09/01 05:01:23;;;;;;;23.27;21.13;;;;;;;14.36;100.00;100414.88;4983338;28;20191;-75
2022/09/01 05:03:56;;;;;;;23.20;21.33;;;;;;;14.37;100.00;100415.72;4969265;28;20283;-75
2022/09/01 05:06:22;;;;;;;24.37;22.30;;;;;;;14.42;100.00;100421.69;4959536;28;20232;-78
2022/09/01 05:08:48;;;;;;;24.50;22.50;;;;;;;14.41;100.00;100420.81;4957780;28;20642;-77
2022/09/01 05:11:17;;;;;;;23.87;21.77;;;;;;;14.46;100.00;100413.78;4976782;28;20312;-76
2022/09/01 05:13:45;;;;;;;24.83;22.73;;;;;;;14.48;100.00;100427.63;4963506;28;20196;-76
2022/09/01 05:16:14;;;;;;;24.93;22.73;;;;;;;14.53;100.00;100419.69;4965745;28;20270;-77
2022/09/01 05:18:46;;;;;;;24.80;22.70;;;;;;;14.56;100.00;100417.03;4985754;28;20219;-78
2022/09/01 05:21:15;;;;;;;24.47;22.47;;;;;;;14.59;100.00;100411.75;4968521;28;20225;-77
2022/09/01 05:23:41;;;;;;;23.70;21.43;;;;;;;14.64;100.00;100419.44;4967056;28;20189;-80
2022/09/01 05:26:33;;;;;;;23.73;21.80;;;;;;;14.72;100.00;100416.69;4964898;28;20218;-76
2022/09/01 05:29:09;;;;;;;23.77;21.57;;;;;;;14.77;100.00;100415.69;4970656;28;20820;-75
2022/09/01 05:31:36;;;;;;;23.50;21.50;;;;;;;14.85;100.00;100415.50;4968664;28;20200;-78
2022/09/01 05:34:03;;;;;;;23.40;21.50;;;;;;;14.93;100.00;100415.31;4963363;28;20220;-74
2022/09/01 05:36:32;;;;;;;20.93;19.23;;;;;;;15.05;100.00;100424.56;4961247;28;20252;-77
2022/09/01 05:38:59;;;;;;;21.13;19.33;;;;;;;15.21;100.00;100415.44;4963650;28;20239;-76
2022/09/01 05:41:25;;;;;;;21.23;19.43;;;;;;;15.33;100.00;100424.69;4965229;28;20189;-78
2022/09/01 05:43:53;;;;;;;21.67;19.77;;;;;;;15.43;100.00;100433.13;4962342;28;20190;-76
2022/09/01 05:46:25;;;;;;;21.27;19.57;;;;;;;15.53;100.00;100431.13;4959854;28;21048;-75
2022/09/01 05:48:51;;;;;;;20.13;18.23;;;;;;;15.55;100.00;100429.34;4966702;28;20667;-75
2022/09/01 05:51:24;;;;;;;20.57;18.77;;;;;;;15.71;100.00;100429.75;4960927;28;20193;-76
2022/09/01 05:53:57;;;;;;;19.73;17.97;;;;;;;15.83;100.00;100424.19;4966524;28;20618;-77
2022/09/01 05:56:25;;;;;;;20.27;18.47;;;;;;;15.95;100.00;100427.41;4959380;28;20307;-79
2022/09/01 05:58:52;;;;;;;20.27;18.43;;;;;;;16.00;100.00;100415.03;4964539;28;20645;-79
2022/09/01 06:01:21;;;;;;;19.17;17.57;;;;;;;16.26;100.00;100411.66;4979944;28;20223;-77
2022/09/01 06:03:53;;;;;;;19.40;17.80;;;;;;;16.31;100.00;100419.34;4981455;28;20571;-77
2022/09/01 06:06:21;;;;;;;18.43;16.93;;;;;;;16.30;100.00;100409.78;4974259;28;20555;-76
2022/09/01 06:08:48;;;;;;;17.97;16.57;;;;;;;16.34;100.00;100413.16;4972779;28;20212;-77
2022/09/01 06:11:15;;;;;;;19.07;17.43;;;;;;;16.42;100.00;100419.03;4979980;28;20208;-77
2022/09/01 06:13:40;;;;;;;18.67;16.90;;;;;;;16.54;100.00;100417.78;4970148;28;20284;-78
2022/09/01 06:16:07;;;;;;;16.83;15.53;;;;;;;17.30;100.00;100415.31;4971474;28;20696;-77
2022/09/01 06:18:33;;;;;;;17.33;15.83;;;;;;;18.38;100.00;100416.56;4980773;28;20181;-76
2022/09/01 06:20:58;;;;;;;14.53;13.27;;;;;;;19.46;100.00;100418.28;4975022;28;20692;-75
2022/09/01 06:23:24;;;;;;;13.10;12.10;;;;;;;20.29;100.00;100424.19;4976569;28;20559;-79
2022/09/01 06:25:50;;;;;;;13.67;12.53;;;;;;;20.78;100.00;100422.75;4967071;28;20207;-76
2022/09/01 06:28:20;;;;;;;12.43;11.27;;;;;;;21.03;100.00;100414.47;4972480;28;20490;-76
2022/09/01 06:30:47;;;;;;;13.07;11.77;;;;;;;21.14;100.00;100419.19;4973626;28;20199;-76
2022/09/01 06:33:13;;;;;;;12.03;11.03;;;;;;;21.27;100.00;100427.31;4976727;28;20194;-77
2022/09/01 06:35:40;;;;;;;12.30;11.37;;;;;;;21.40;100.00;100425.75;4978243;28;20211;-77
2022/09/01 06:38:08;;;;;;;11.60;10.60;;;;;;;21.68;99.80;100418.22;4978557;28;20215;-77
2022/09/01 06:40:34;;;;;;;10.77;9.87;;;;;;;22.01;98.36;100427.84;4967866;28;20201;-77
2022/09/01 06:43:06;;;;;;;10.37;9.47;;;;;;;22.19;97.03;100437.38;4967460;28;20280;-76
2022/09/01 06:45:33;;;;;;;9.23;8.53;;;;;;;22.55;96.74;100429.31;4965896;28;20292;-77
2022/09/01 06:47:59;;;;;;;10.20;9.30;;;;;;;22.67;95.21;100428.59;4969016;28;20195;-76
2022/09/01 06:50:26;;;;;;;9.87;9.07;;;;;;;22.91;94.83;100430.75;4975303;28;20495;-76
2022/09/01 06:53:00;;;;;;;8.33;7.57;;;;;;;23.19;94.52;100429.97;4982798;28;20189;-77
2022/09/01 06:55:26;;;;;;;7.63;7.03;;;;;;;23.26;91.51;100433.13;4964355;28;20214;-76
2022/09/01 06:57:53;;;;;;;7.07;6.57;;;;;;;23.41;91.70;100434.81;4955333;28;20218;-77
2022/09/01 07:00:19;;;;;;;7.57;6.97;;;;;;;23.51;90.64;100437.75;4967007;28;20205;-78
2022/09/01 07:02:53;;;;;;;7.23;6.63;;;;;;;23.70;91.20;100440.13;4977822;28;20186;-76
2022/09/01 07:05:20;;;;;;;6.17;5.67;;;;;;;23.92;90.69;100436.16;4974448;28;20209;-77
2022/09/01 07:07:50;;;;;;;6.60;6.10;;;;;;;24.04;90.28;100439.84;4967185;28;20663;-76
2022/09/01 07:10:21;;;;;;;5.47;5.07;;;;;;;24.10;90.35;100438.63;4969509;28;20184;-76
2022/09/01 07:12:48;;;;;;;6.00;5.60;;;;;;;24.08;90.00;100441.34;4971618;28;20281;-75
2022/09/01 07:15:16;;;;;;;6.40;5.93;;;;;;;24.05;89.46;100441.53;4977963;28;20231;-75
2022/09/01 07:17:51;;;;;;;6.00;5.60;;;;;;;23.98;89.83;100450.81;4962542;28;20205;-77
2022/09/01 07:20:27;;;;;;;6.27;5.77;;;;;;;23.92;89.93;100449.38;4965901;28;20221;-77
2022/09/01 07:22:55;;;;;;;6.40;5.90;;;;;;;23.70;89.30;100455.13;4965926;28;20222;-77
2022/09/01 07:25:20;;;;;;;6.53;6.03;;;;;;;23.07;89.38;100452.66;4968677;28;20205;-76
2022/09/01 07:27:49;;;;;;;7.63;7.03;;;;;;;22.89;90.95;100445.84;4971552;28;20610;-76
2022/09/01 07:30:17;;;;;;;7.83;7.13;;;;;;;22.49;91.62;100452.44;4965222;28;20189;-77
2022/09/01 07:32:43;;;;;;;7.43;6.90;;;;;;;22.32;93.19;100452.50;4967954;28;20780;-76
2022/09/01 07:35:10;;;;;;;7.73;7.03;;;;;;;22.30;93.73;100451.75;4968911;28;20186;-75
2022/09/01 07:37:36;;;;;;;7.90;7.20;;;;;;;22.07;94.28;100459.13;4966643;28;20214;-77
2022/09/01 07:40:05;;;;;;;8.33;7.73;;;;;;;21.60;95.67;100450.22;4967087;28;20201;-78
2022/09/01 07:42:31;;;;;;;8.77;8.03;;;;;;;21.56;96.54;100452.09;4967678;28;20186;-78
2022/09/01 07:44:57;;;;;;;7.80;7.23;;;;;;;21.57;97.62;100460.88;4967364;28;20641;-77
2022/09/01 07:47:22;;;;;;;8.40;7.80;;;;;;;21.42;98.22;100452.84;4967191;28;20178;-77
2022/09/01 07:49:48;;;;;;;9.73;8.20;;;;;;;21.39;98.83;100458.25;4975996;28;20562;-77
2022/09/01 07:52:13;;;;;;;9.40;8.70;;;;;;;21.19;99.98;100451.41;4964945;28;20185;-76
2022/09/01 07:54:39;;;;;;;10.40;9.43;;;;;;;20.94;100.00;100457.91;4977189;28;20224;-76
2022/09/01 07:57:04;;;;;;;9.00;8.20;;;;;;;20.83;100.00;100454.94;4963555;28;20216;-76
2022/09/01 07:59:32;;;;;;;10.33;9.37;;;;;;;20.73;100.00;100462.38;4969393;28;20185;-77
2022/09/01 08:01:57;;;;;;;9.73;8.73;;;;;;;20.73;100.00;100457.13;4974536;28;20274;-75
2022/09/01 08:04:23;;;;;;;9.93;8.97;;;;;;;20.61;100.00;100457.72;4974730;28;20565;-77
2022/09/01 08:06:48;;;;;;;8.90;8.13;;;;;;;20.66;100.00;100466.25;4966208;28;20198;-76
2022/09/01 08:09:14;;;;;;;9.83;8.77;;;;;;;20.60;100.00;100461.28;4968672;28;20189;-76
2022/09/01 08:11:39;;;;;;;9.00;8.27;;;;;;;20.48;100.00;100468.00;4969442;28;20192;-77
2022/09/01 08:14:05;;;;;;;8.77;8.13;;;;;;;20.60;100.00;100470.03;4976111;28;20221;-78
2022/09/01 08:16:31;;;;;;;9.33;8.60;;;;;;;20.54;100.00;100476.44;4978624;28;20213;-76
2022/09/01 08:18:57;;;;;;;9.93;9.07;;;;;;;20.39;100.00;100469.28;4972058;28;20195;-76
2022/09/01 08:21:24;;;;;;;11.07;9.90;;;;;;;20.35;100.00;100468.56;4980383;28;20189;-77
2022/09/01 08:23:51;;;;;;;8.83;8.03;;;;;;;20.32;100.00;100478.38;4971604;28;20674;-77
2022/09/01 08:26:19;;;;;;;8.07;7.47;;;;;;;20.36;100.00;100485.19;4968662;28;20206;-76
2022/09/01 08:28:45;;;;;;;9.40;8.50;;;;;;;20.46;100.00;100481.19;4978610;28;20252;-76
2022/09/01 08:31:14;;;;;;;10.23;8.17;;;;;;;20.41;100.00;100472.69;4976831;28;20196;-77
2022/09/01 08:33:40;;;;;;;8.70;7.90;;;;;;;20.49;100.00;100474.97;4972086;28;20575;-76
2022/09/01 08:36:11;;;;;;;8.47;7.50;;;;;;;20.67;100.00;100468.78;4971547;28;20209;-77
2022/09/01 08:38:38;;;;;;;8.10;7.27;;;;;;;20.68;100.00;100469.66;4977316;28;20208;-77
2022/09/01 08:41:12;;;;;;;8.87;8.17;;;;;;;20.61;100.00;100482.25;4969715;28;20207;-76
2022/09/01 08:43:56;;;;;;;8.87;8.27;;;;;;;20.55;100.00;100469.38;4967275;28;20229;-77
2022/09/01 08:46:33;;;;;;;8.83;7.93;;;;;;;20.51;100.00;100480.97;4978519;28;20220;-77
2022/09/01 08:49:06;;;;;;;8.30;7.60;;;;;;;20.38;100.00;100473.66;4971689;28;20212;-77
2022/09/01 08:51:41;;;;;;;8.13;7.53;;;;;;;20.51;100.00;100481.84;4980468;28;20201;-77
2022/09/01 08:54:36;;;;;;;8.47;7.67;;;;;;;20.56;100.00;100471.97;4976364;28;20198;-77
2022/09/01 08:57:07;;;;;;;8.17;7.57;;;;;;;20.73;100.00;100466.81;4969040;28;20960;-77
2022/09/01 08:59:32;;;;;;;8.43;7.73;;;;;;;20.74;100.00;100468.50;4978903;28;20192;-76
2022/09/01 09:02:01;;;;;;;7.37;6.73;;;;;;;20.97;100.00;100476.13;4976505;28;20201;-77
2022/09/01 09:04:58;;;;;;;7.30;6.80;;;;;;;21.15;100.00;100470.88;4965689;28;20316;-76
2022/09/01 09:07:35;;;;;;;7.57;6.97;;;;;;;21.08;100.00;100475.63;4986309;28;20720;-77
2022/09/01 09:10:22;;;;;;;7.73;7.13;;;;;;;21.10;100.00;100467.66;4968165;28;20196;-78
2022/09/01 09:13:16;;;;;;;7.03;6.40;;;;;;;21.22;100.00;100471.44;4978394;28;20197;-77
2022/09/01 09:15:49;;;;;;;7.10;6.60;;;;;;;21.32;99.92;100467.44;4967884;28;20253;-78
2022/09/01 09:18:36;;;;;;;7.10;6.50;;;;;;;21.65;98.44;100457.88;4967438;28;20221;-77
2022/09/01 09:21:15;;;;;;;6.93;6.33;;;;;;;21.88;96.60;100469.81;4989646;28;20181;-77
2022/09/01 09:23:45;;;;;;;5.53;5.13;;;;;;;22.02;96.30;100467.28;4973209;28;20228;-77
2022/09/01 09:26:11;;;;;;;5.30;4.90;;;;;;;21.99;94.49;100471.88;4965625;28;20300;-78
2022/09/01 09:28:38;;;;;;;5.67;5.17;;;;;;;22.12;94.56;100462.38;4975281;28;20276;-77
2022/09/01 09:31:42;;;;;;;5.77;5.17;;;;;;;22.19;94.51;100469.00;4972114;28;20197;-76
2022/09/01 09:34:35;;;;;;;4.80;4.40;;;;;;;22.19;92.19;100466.34;4969905;28;20196;-77
2022/09/01 09:37:18;;;;;;;5.30;4.90;;;;;;;22.34;91.57;100462.03;4976553;28;20216;-77
2022/09/01 09:39:44;;;;;;;5.13;4.03;;;;;;;22.41;92.09;100465.19;4977124;28;20204;-77
2022/09/01 09:42:12;;;;;;;4.53;4.13;;;;;;;22.46;91.89;100457.88;4974451;28;20288;-77
2022/09/01 09:44:44;;;;;;;3.90;3.50;;;;;;;22.52;90.17;100470.72;4978093;28;20275;-76
2022/09/01 09:47:29;;;;;;;4.30;3.90;;;;;;;22.55;90.59;100460.94;4971735;28;20556;-76
2022/09/01 09:50:16;;;;;;;4.00;3.60;;;;;;;22.86;89.47;100464.47;4978438;28;20194;-77
2022/09/01 09:52:45;;;;;;;4.17;3.87;;;;;;;22.87;88.66;100456.47;4978800;28;20308;-77
2022/09/01 09:55:27;;;;;;;4.27;3.97;;;;;;;22.89;87.59;100451.94;4976745;28;20685;-77
2022/09/01 09:57:57;;;;;;;3.97;3.50;;;;;;;22.73;86.46;100445.84;4976687;28;20246;-76
2022/09/01 10:00:33;;;;;;;4.03;3.63;;;;;;;22.39;87.84;100449.44;4976661;28;20192;-76
2022/09/01 10:03:01;;;;;;;3.67;3.40;;;;;;;22.26;87.89;100448.41;4973757;28;20215;-77
2022/09/01 10:05:34;;;;;;;3.60;3.30;;;;;;;22.58;88.07;100447.59;4978894;28;20225;-77
2022/09/01 10:08:00;;;;;;;3.90;3.60;;;;;;;22.68;87.29;100451.41;4969375;28;20737;-76
2022/09/01 10:10:47;;;;;;;3.90;3.60;;;;;;;22.42;87.29;100458.13;4975016;28;20208;-77
2022/09/01 10:13:19;;;;;;;3.53;3.30;;;;;;;22.36;88.32;100443.47;4972998;28;20197;-77
2022/09/01 10:15:54;;;;;;;3.20;3.00;;;;;;;22.61;88.25;100455.34;4986120;28;20236;-76
2022/09/01 10:18:29;;;;;;;3.10;2.90;;;;;;;22.65;86.52;100454.22;4983894;28;20689;-77
2022/09/01 10:21:03;;;;;;;3.37;3.17;;;;;;;22.82;85.21;100448.81;4977082;28;20599;-78
2022/09/01 10:23:32;;;;;;;3.67;3.33;;;;;;;23.04;85.12;100454.63;4968818;28;20225;-77
2022/09/01 10:26:04;;;;;;;3.53;3.33;;;;;;;23.22;85.20;100444.78;4967906;28;20704;-77
2022/09/01 10:28:32;;;;;;;3.27;3.07;;;;;;;23.46;83.77;100447.75;4966238;28;20212;-77
2022/09/01 10:30:58;;;;;;;3.53;3.23;;;;;;;23.82;81.88;100451.72;4967222;28;20213;-77
2022/09/01 10:33:24;;;;;;;3.20;3.00;;;;;;;23.85;80.81;100446.25;4966943;28;20217;-77
2022/09/01 10:35:52;;;;;;;3.13;2.93;;;;;;;24.03;80.96;100446.91;4976567;28;20211;-77
2022/09/01 10:38:28;;;;;;;3.10;2.90;;;;;;;24.28;81.69;100447.16;4963868;28;20706;-77
2022/09/01 10:41:09;;;;;;;3.47;2.93;;;;;;;24.15;79.89;100447.94;4978603;28;20196;-78
2022/09/01 10:43:47;;;;;;;3.30;3.00;;;;;;;24.12;80.07;100452.59;4969745;28;20182;-77
2022/09/01 10:46:19;;;;;;;2.87;2.67;;;;;;;23.73;80.06;100447.84;4966713;28;20738;-78
2022/09/01 10:48:46;;;;;;;3.40;3.10;;;;;;;23.58;79.60;100440.88;4965382;28;20213;-77
2022/09/01 10:51:12;;;;;;;3.20;3.00;;;;;;;23.47;79.55;100438.06;4964399;28;20192;-76
2022/09/01 10:53:47;;;;;;;3.47;3.17;;;;;;;23.52;79.84;100438.63;4966622;28;20189;-77
2022/09/01 10:56:15;;;;;;;3.90;3.60;;;;;;;23.47;79.46;100438.88;4970023;28;20211;-76
2022/09/01 10:59:04;;;;;;;3.90;3.60;;;;;;;23.54;79.56;100437.59;4971677;28;20686;-76
2022/09/01 11:01:39;;;;;;;3.63;3.30;;;;;;;23.51;78.95;100445.69;4971291;28;20216;-76
2022/09/01 11:04:05;;;;;;;4.00;3.70;;;;;;;23.37;79.12;100443.03;4976757;28;20308;-77
2022/09/01 11:07:00;;;;;;;3.00;2.80;;;;;;;23.31;79.85;100438.97;4993206;28;20197;-77
2022/09/01 11:09:40;;;;;;;3.70;3.40;;;;;;;23.46;79.69;100439.00;4973047;28;20221;-77
2022/09/01 11:12:24;;;;;;;3.90;3.60;;;;;;;23.43;79.21;100434.75;4966248;28;20201;-79
2022/09/01 11:14:51;;;;;;;3.80;3.50;;;;;;;23.82;79.45;100435.03;4960581;28;20301;-77
2022/09/01 11:17:18;;;;;;;3.70;3.50;;;;;;;23.95;78.26;100432.44;4969594;28;20759;-76
2022/09/01 11:19:44;;;;;;;3.77;3.47;;;;;;;23.99;77.95;100432.19;4971432;28;20197;-77
2022/09/01 11:22:12;;;;;;;4.53;3.63;;;;;;;23.83;77.77;100429.63;4976210;28;20251;-77
2022/09/01 11:24:37;;;;;;;4.00;3.70;;;;;;;23.97;78.14;100422.66;4978202;28;20539;-77